createdAt,value
2022-07-26T00:01:12.766Z,7.80
2022-07-26T00:06:37.540Z,7.57
2022-07-26T00:12:00.895Z,3.67
2022-07-26T00:17:24.414Z,4.57
2022-07-26T00:22:49.308Z,1.87
2022-07-26T00:28:13.175Z,2.57
2022-07-26T00:33:37.061Z,4.63
2022-07-26T00:39:01.890Z,3.47
2022-07-26T00:44:25.161Z,1.83
2022-07-26T00:49:48.746Z,4.67
2022-07-26T00:55:14.896Z,4.93
2022-07-26T01:00:38.409Z,5.83
2022-07-26T01:06:02.184Z,6.10
2022-07-26T01:11:26.975Z,4.23
2022-07-26T01:16:51.177Z,5.97
2022-07-26T01:22:15.950Z,3.53
2022-07-26T01:27:43.017Z,7.33
2022-07-26T01:33:06.988Z,5.23
2022-07-26T01:38:31.557Z,6.40
2022-07-26T01:43:54.993Z,3.37
2022-07-26T01:49:19.840Z,4.93
2022-07-26T01:54:44.651Z,4.20
2022-07-26T02:00:09.890Z,3.53
2022-07-26T02:05:33.258Z,6.43
2022-07-26T02:11:04.541Z,4.40
2022-07-26T02:16:27.938Z,5.83
2022-07-26T02:21:51.319Z,6.93
2022-07-26T02:27:18.955Z,4.63
2022-07-26T02:32:43.984Z,6.10
2022-07-26T02:38:09.341Z,3.90
2022-07-26T02:43:36.079Z,4.03
2022-07-26T02:48:59.841Z,7.57
2022-07-26T02:54:23.080Z,4.73
2022-07-26T02:59:48.028Z,10.63
2022-07-26T03:05:12.577Z,7.93
2022-07-26T03:10:36.113Z,6.73
2022-07-26T03:16:02.554Z,8.10
2022-07-26T03:21:26.020Z,7.77
2022-07-26T03:26:52.148Z,6.10
2022-07-26T03:32:16.879Z,10.10
2022-07-26T03:37:45.912Z,7.63
2022-07-26T03:43:09.937Z,5.47
2022-07-26T03:48:35.339Z,8.73
2022-07-26T03:53:58.605Z,8.27
2022-07-26T03:59:24.214Z,3.93
2022-07-26T04:04:49.597Z,5.07
2022-07-26T04:10:15.612Z,6.70
2022-07-26T04:15:42.298Z,8.67
2022-07-26T04:21:07.456Z,5.70
2022-07-26T04:26:31.117Z,5.90
2022-07-26T04:31:57.747Z,4.50
2022-07-26T04:37:22.844Z,9.33
2022-07-26T04:42:47.131Z,11.20
2022-07-26T04:48:10.417Z,4.20
2022-07-26T04:53:35.027Z,8.47
2022-07-26T04:58:58.903Z,4.97
2022-07-26T05:04:22.388Z,8.43
2022-07-26T05:09:47.078Z,8.40
2022-07-26T05:15:13.680Z,7.90
2022-07-26T05:20:38.761Z,7.77
2022-07-26T05:26:03.440Z,13.47
2022-07-26T05:31:27.064Z,6.50
2022-07-26T05:36:50.729Z,7.20
2022-07-26T05:42:16.034Z,9.40
2022-07-26T05:47:41.441Z,11.37
2022-07-26T05:53:04.978Z,8.27
2022-07-26T05:58:32.191Z,10.13
2022-07-26T06:03:55.593Z,9.03
2022-07-26T06:09:18.915Z,14.77
2022-07-26T06:14:45.009Z,12.03
2022-07-26T06:20:12.138Z,9.67
2022-07-26T06:25:37.274Z,13.13
2022-07-26T06:31:02.555Z,8.23
2022-07-26T06:36:30.316Z,9.00
2022-07-26T06:41:54.759Z,10.07
2022-07-26T06:47:19.479Z,10.10
2022-07-26T06:52:42.990Z,8.80
2022-07-26T06:58:11.632Z,6.23
2022-07-26T07:03:36.989Z,8.43
2022-07-26T07:09:00.466Z,7.93
2022-07-26T07:14:23.864Z,8.37
2022-07-26T07:19:48.955Z,9.00
2022-07-26T07:25:14.739Z,10.50
2022-07-26T07:30:38.445Z,8.53
2022-07-26T07:36:03.126Z,8.07
2022-07-26T07:41:26.712Z,8.40
2022-07-26T07:46:50.409Z,11.50
2022-07-26T07:52:15.139Z,8.73
2022-07-26T07:57:40.270Z,8.27
2022-07-26T08:03:03.698Z,7.55
2022-07-26T08:08:28.310Z,7.32
2022-07-26T08:13:52.077Z,7.35
2022-07-26T08:19:16.268Z,6.25
2022-07-26T08:24:41.849Z,6.17
2022-07-26T08:30:06.230Z,3.93
2022-07-26T08:35:33.100Z,7.00
2022-07-26T08:40:57.847Z,8.43
2022-07-26T08:46:25.176Z,6.20
2022-07-26T08:51:49.147Z,9.50
2022-07-26T08:57:14.704Z,7.50
2022-07-26T09:02:41.757Z,4.93
2022-07-26T09:08:25.015Z,7.87
2022-07-26T09:13:54.538Z,6.20
2022-07-26T09:19:22.635Z,4.18
2022-07-26T09:24:47.834Z,4.90
2022-07-26T09:30:18.183Z,5.10
2022-07-26T09:35:50.473Z,5.82
2022-07-26T09:41:20.564Z,5.32
2022-07-26T09:46:54.160Z,5.68
2022-07-26T09:52:18.832Z,3.13
2022-07-26T09:57:43.830Z,5.10
2022-07-26T10:03:12.730Z,8.52
2022-07-26T10:08:36.559Z,4.32
2022-07-26T10:14:01.697Z,7.57
2022-07-26T10:19:45.529Z,5.55
2022-07-26T10:25:42.407Z,3.28
2022-07-26T10:31:31.297Z,2.42
2022-07-26T10:37:02.338Z,3.97
2022-07-26T10:42:44.302Z,1.80
2022-07-26T10:48:12.458Z,2.20
2022-07-26T10:53:37.334Z,3.73
2022-07-26T10:59:01.109Z,2.50
2022-07-26T11:04:26.921Z,3.10
2022-07-26T11:09:55.784Z,2.80
2022-07-26T11:15:20.352Z,2.10
2022-07-26T11:20:45.487Z,1.70
2022-07-26T11:26:15.814Z,1.20
2022-07-26T11:31:50.400Z,1.05
2022-07-26T11:37:20.054Z,1.25
2022-07-26T11:42:44.895Z,2.85
2022-07-26T11:48:09.222Z,1.60
2022-07-26T11:53:37.376Z,3.83
2022-07-26T11:59:02.990Z,3.15
2022-07-26T12:04:28.499Z,4.50
2022-07-26T12:09:53.592Z,4.50
2022-07-26T12:15:18.537Z,3.03
2022-07-26T12:21:03.686Z,2.28
2022-07-26T12:26:30.729Z,5.25
2022-07-26T12:32:12.104Z,3.65
2022-07-26T12:37:40.985Z,1.10
2022-07-26T12:43:04.863Z,1.38
2022-07-26T12:48:29.520Z,2.50
2022-07-26T12:53:54.224Z,3.10
2022-07-26T12:59:21.005Z,1.20
2022-07-26T13:04:49.208Z,1.48
2022-07-26T13:10:33.249Z,2.03
2022-07-26T13:15:57.400Z,1.88
2022-07-26T13:27:55.516Z,4.03
2022-07-26T13:40:20.878Z,1.77
2022-07-26T14:39:17.424Z,3.27
2022-07-26T14:45:55.082Z,3.87
2022-07-26T17:28:18.671Z,4.00
2022-07-26T17:33:42.282Z,2.33
2022-07-26T17:39:06.053Z,4.93
2022-07-26T17:44:32.832Z,3.57
2022-07-26T17:50:08.922Z,2.30
2022-07-26T17:55:41.583Z,6.43
2022-07-26T18:01:08.392Z,7.10
2022-07-26T18:06:32.714Z,4.03
2022-07-26T18:12:03.265Z,3.83
2022-07-26T18:17:28.343Z,4.37
2022-07-26T18:22:51.976Z,3.77
2022-07-26T18:28:16.593Z,5.93
2022-07-26T18:33:41.989Z,4.77
2022-07-26T18:39:06.990Z,6.37
2022-07-26T18:44:33.311Z,5.17
2022-07-26T18:49:58.283Z,4.57
2022-07-26T18:55:23.043Z,10.97
2022-07-26T19:00:46.696Z,6.97
2022-07-26T19:06:13.211Z,7.33
2022-07-26T19:11:37.781Z,8.90
2022-07-26T19:17:01.658Z,4.90
2022-07-26T19:22:26.669Z,5.80
2022-07-26T19:27:49.903Z,6.83
2022-07-26T19:33:13.182Z,8.80
2022-07-26T19:38:38.952Z,7.17
2022-07-26T19:44:02.376Z,7.30
2022-07-26T19:49:26.196Z,4.53
2022-07-26T19:54:51.719Z,4.13
2022-07-26T20:00:16.095Z,6.83
2022-07-26T20:05:41.655Z,7.50
2022-07-26T20:11:06.642Z,6.53
2022-07-26T20:16:32.339Z,5.30
2022-07-26T20:21:56.395Z,4.83
2022-07-26T20:27:21.071Z,3.07
2022-07-26T20:32:44.363Z,5.70
2022-07-26T20:38:07.704Z,8.60
2022-07-26T20:43:32.461Z,6.03
2022-07-26T20:48:57.808Z,3.60
2022-07-26T20:54:21.079Z,3.67
2022-07-26T20:59:46.295Z,3.87
2022-07-26T21:05:10.550Z,2.53
2022-07-26T21:10:33.946Z,2.73
2022-07-26T21:15:58.736Z,9.13
2022-07-26T21:21:22.293Z,7.40
2022-07-26T21:26:45.998Z,4.33
2022-07-26T21:32:10.788Z,5.67
2022-07-26T21:37:34.300Z,4.13
2022-07-26T21:42:58.092Z,2.33
2022-07-26T21:48:23.091Z,2.13
2022-07-26T21:53:46.638Z,3.97
2022-07-26T21:59:10.251Z,3.73
2022-07-26T22:04:35.134Z,2.57
2022-07-26T22:10:01.628Z,1.27
2022-07-26T22:15:25.251Z,2.80
2022-07-26T22:20:54.284Z,2.93
2022-07-26T22:26:17.868Z,2.93
2022-07-26T22:31:41.245Z,4.20
2022-07-26T22:37:06.529Z,4.63
2022-07-26T22:42:30.095Z,6.43
2022-07-26T22:47:56.279Z,2.77
2022-07-26T22:53:21.583Z,5.03
2022-07-26T22:58:44.920Z,3.37
2022-07-26T23:04:09.140Z,4.87
2022-07-26T23:09:33.974Z,3.10
2022-07-26T23:14:58.645Z,5.07
2022-07-26T23:20:22.029Z,1.80
2022-07-26T23:25:46.817Z,4.47
2022-07-26T23:31:12.805Z,1.93
2022-07-26T23:36:36.313Z,4.23
2022-07-26T23:42:02.905Z,6.03
2022-07-26T23:47:27.131Z,5.27
2022-07-26T23:52:50.729Z,3.83
2022-07-26T23:58:15.479Z,3.73
